createdAt,value
2023-05-23T00:02:05.251Z,13.05
2023-05-23T00:04:33.177Z,13.00
2023-05-23T00:07:01.616Z,12.97
2023-05-23T00:09:29.602Z,12.95
2023-05-23T00:11:57.446Z,12.91
2023-05-23T00:14:26.050Z,12.85
2023-05-23T00:16:54.604Z,12.79
2023-05-23T00:19:22.717Z,12.73
2023-05-23T00:21:52.552Z,12.66
2023-05-23T00:24:20.657Z,12.57
2023-05-23T00:26:48.654Z,12.48
2023-05-23T00:29:16.997Z,12.42
2023-05-23T00:31:46.051Z,12.35
2023-05-23T00:34:19.300Z,12.30
2023-05-23T00:36:47.206Z,12.25
2023-05-23T00:39:17.044Z,12.20
2023-05-23T00:41:52.245Z,12.14
2023-05-23T00:44:20.902Z,12.09
2023-05-23T00:46:53.472Z,12.04
2023-05-23T00:49:22.094Z,11.98
2023-05-23T00:51:51.671Z,11.89
2023-05-23T00:54:29.107Z,11.81
2023-05-23T00:56:57.320Z,11.65
2023-05-23T00:59:26.188Z,11.66
2023-05-23T01:01:57.442Z,11.59
2023-05-23T01:04:25.949Z,11.56
2023-05-23T01:06:56.131Z,11.46
2023-05-23T01:09:27.304Z,11.47
2023-05-23T01:12:00.381Z,11.45
2023-05-23T01:14:36.279Z,11.44
2023-05-23T01:17:15.691Z,11.45
2023-05-23T01:20:04.656Z,11.49
2023-05-23T01:23:01.997Z,11.51
2023-05-23T01:26:05.755Z,11.54
2023-05-23T01:28:37.824Z,11.59
2023-05-23T01:31:08.763Z,11.63
2023-05-23T01:33:38.637Z,11.66
2023-05-23T01:36:08.814Z,11.68
2023-05-23T01:38:36.546Z,11.69
2023-05-23T01:41:04.342Z,11.68
2023-05-23T01:43:32.558Z,11.67
2023-05-23T01:46:01.594Z,11.67
2023-05-23T01:48:31.036Z,11.67
2023-05-23T01:50:59.579Z,11.64
2023-05-23T01:53:30.387Z,11.62
2023-05-23T01:56:00.870Z,11.58
2023-05-23T01:58:30.012Z,11.56
2023-05-23T02:00:58.252Z,11.55
2023-05-23T02:03:26.469Z,11.53
2023-05-23T02:05:55.949Z,11.46
2023-05-23T02:08:23.817Z,11.42
2023-05-23T02:10:51.844Z,11.37
2023-05-23T02:13:21.179Z,11.31
2023-05-23T02:15:48.998Z,11.29
2023-05-23T02:18:17.648Z,11.26
2023-05-23T02:20:45.641Z,11.25
2023-05-23T02:23:13.543Z,11.24
2023-05-23T02:25:41.735Z,11.23
2023-05-23T02:28:11.429Z,11.23
2023-05-23T02:30:40.267Z,11.22
2023-05-23T02:33:08.302Z,11.23
2023-05-23T02:35:35.960Z,11.25
2023-05-23T02:38:03.806Z,11.28
2023-05-23T02:40:31.537Z,11.32
2023-05-23T02:42:59.283Z,11.34
2023-05-23T02:45:27.856Z,11.38
2023-05-23T02:47:55.638Z,11.39
2023-05-23T02:50:23.315Z,11.42
2023-05-23T02:52:51.254Z,11.44
2023-05-23T02:55:19.426Z,11.47
2023-05-23T02:57:48.637Z,11.47
2023-05-23T03:00:17.203Z,11.49
2023-05-23T03:02:46.917Z,11.52
2023-05-23T03:05:14.904Z,11.59
2023-05-23T03:07:43.655Z,11.63
2023-05-23T03:10:11.567Z,11.67
2023-05-23T03:12:39.362Z,11.66
2023-05-23T03:15:09.670Z,11.69
2023-05-23T03:17:39.689Z,11.74
2023-05-23T03:20:09.498Z,11.75
2023-05-23T03:22:37.368Z,11.77
2023-05-23T03:25:06.634Z,11.75
2023-05-23T03:27:34.441Z,11.74
2023-05-23T03:30:04.901Z,11.71
2023-05-23T03:32:32.891Z,11.69
2023-05-23T03:35:00.911Z,11.69
2023-05-23T03:37:28.401Z,11.74
2023-05-23T03:39:56.102Z,11.81
2023-05-23T03:42:24.180Z,11.90
2023-05-23T03:44:52.095Z,11.99
2023-05-23T03:47:24.050Z,12.13
2023-05-23T03:49:51.865Z,12.39
2023-05-23T03:52:19.854Z,12.73
2023-05-23T03:54:53.820Z,13.08
2023-05-23T03:57:22.416Z,13.44
2023-05-23T03:59:52.554Z,13.85
2023-05-23T04:02:21.387Z,14.24
2023-05-23T04:04:49.345Z,14.56
2023-05-23T04:07:17.336Z,14.90
2023-05-23T04:09:46.117Z,15.22
2023-05-23T04:12:16.496Z,15.50
2023-05-23T04:14:44.357Z,15.96
2023-05-23T04:17:12.643Z,16.44
2023-05-23T04:19:40.466Z,16.76
2023-05-23T04:22:08.459Z,17.12
2023-05-23T04:24:38.326Z,17.55
2023-05-23T04:27:07.432Z,18.11
2023-05-23T04:29:35.867Z,18.45
2023-05-23T04:32:06.262Z,18.66
2023-05-23T04:37:50.535Z,18.73
2023-05-23T04:40:20.389Z,18.71
2023-05-23T04:42:59.384Z,18.59
2023-05-23T04:45:32.465Z,18.56
2023-05-23T04:48:04.337Z,18.64
2023-05-23T04:50:35.604Z,18.86
2023-05-23T04:53:04.677Z,19.12
2023-05-23T04:55:33.492Z,19.38
2023-05-23T04:58:01.641Z,19.63
2023-05-23T05:00:29.903Z,19.83
2023-05-23T05:02:58.283Z,19.95
2023-05-23T05:05:28.259Z,20.18
2023-05-23T05:07:56.679Z,20.52
2023-05-23T05:10:24.960Z,20.83
2023-05-23T05:12:54.687Z,20.82
2023-05-23T05:15:23.397Z,20.70
2023-05-23T05:17:53.357Z,20.52
2023-05-23T05:20:22.774Z,20.45
2023-05-23T05:22:57.562Z,20.54
2023-05-23T05:25:27.072Z,20.62
2023-05-23T05:27:55.077Z,20.49
2023-05-23T05:30:23.251Z,20.64
2023-05-23T05:32:55.075Z,21.17
2023-05-23T05:35:23.542Z,21.56
2023-05-23T05:37:51.718Z,21.90
2023-05-23T05:40:19.751Z,22.06
2023-05-23T05:42:48.623Z,22.27
2023-05-23T05:45:18.933Z,22.41
2023-05-23T05:47:52.318Z,22.67
2023-05-23T05:50:21.896Z,22.86
2023-05-23T05:52:50.690Z,23.11
2023-05-23T05:55:18.788Z,23.02
2023-05-23T05:57:48.667Z,23.24
2023-05-23T06:00:18.904Z,23.35
2023-05-23T06:02:47.302Z,23.61
2023-05-23T06:05:17.659Z,23.64
2023-05-23T06:07:49.469Z,23.69
2023-05-23T06:10:17.567Z,23.65
2023-05-23T06:12:45.677Z,23.83
2023-05-23T06:15:15.471Z,24.20
2023-05-23T06:17:44.402Z,24.39
2023-05-23T06:20:17.151Z,24.57
2023-05-23T06:22:51.395Z,24.75
2023-05-23T06:25:19.685Z,24.67
2023-05-23T06:27:50.925Z,24.67
2023-05-23T06:30:35.398Z,24.69
2023-05-23T06:33:05.804Z,24.96
2023-05-23T06:35:57.048Z,25.15
2023-05-23T06:38:33.216Z,25.27
2023-05-23T06:41:02.082Z,25.68
2023-05-23T06:43:31.808Z,25.85
2023-05-23T06:46:18.467Z,25.99
2023-05-23T06:48:46.681Z,25.74
2023-05-23T06:51:14.794Z,25.39
2023-05-23T06:53:42.726Z,25.45
2023-05-23T06:56:10.479Z,25.72
2023-05-23T06:58:40.667Z,26.10
2023-05-23T07:01:10.391Z,26.35
2023-05-23T07:03:43.147Z,26.47
2023-05-23T07:06:12.847Z,26.55
2023-05-23T07:08:40.876Z,26.40
2023-05-23T07:11:12.299Z,26.41
2023-05-23T07:13:50.320Z,26.39
2023-05-23T07:16:38.996Z,26.53
2023-05-23T07:19:15.640Z,26.61
2023-05-23T07:21:48.836Z,26.80
2023-05-23T07:24:18.763Z,26.94
2023-05-23T07:26:46.789Z,27.31
2023-05-23T07:29:15.177Z,27.51
2023-05-23T07:31:44.027Z,27.43
2023-05-23T07:34:13.371Z,27.42
2023-05-23T07:37:07.401Z,27.72
2023-05-23T07:39:37.866Z,28.06
2023-05-23T07:42:06.430Z,28.25
2023-05-23T07:44:54.825Z,27.99
2023-05-23T07:47:24.077Z,27.97
2023-05-23T07:50:05.053Z,28.14
2023-05-23T07:52:40.644Z,28.19
2023-05-23T07:55:12.716Z,28.39
2023-05-23T07:57:46.732Z,28.49
2023-05-23T08:00:21.779Z,28.21
2023-05-23T08:02:57.090Z,28.15
2023-05-23T08:05:28.916Z,28.36
2023-05-23T08:07:58.282Z,28.45
2023-05-23T08:10:29.059Z,28.25
2023-05-23T08:13:00.694Z,27.88
2023-05-23T08:15:32.011Z,27.57
2023-05-23T08:18:04.401Z,27.53
2023-05-23T08:20:40.824Z,27.63
2023-05-23T08:23:14.876Z,27.69
2023-05-23T08:25:43.346Z,27.94
2023-05-23T08:28:12.547Z,28.05
2023-05-23T08:30:56.822Z,27.92
2023-05-23T08:33:47.083Z,27.95
2023-05-23T08:36:15.417Z,28.14
2023-05-23T08:38:44.333Z,28.23
2023-05-23T08:41:24.149Z,28.19
2023-05-23T08:43:54.212Z,27.83
2023-05-23T08:46:24.293Z,27.65
2023-05-23T08:48:54.924Z,27.87
2023-05-23T08:51:28.361Z,27.94
2023-05-23T08:53:59.625Z,28.13
2023-05-23T08:56:31.166Z,28.14
2023-05-23T08:58:59.721Z,28.31
2023-05-23T09:01:30.459Z,28.63
2023-05-23T09:04:01.254Z,28.78
2023-05-23T09:06:32.862Z,28.70
2023-05-23T09:09:02.057Z,28.84
2023-05-23T09:11:35.185Z,29.11
2023-05-23T09:14:04.734Z,29.23
2023-05-23T09:19:47.884Z,29.36
2023-05-23T09:22:28.693Z,29.39
2023-05-23T09:25:02.739Z,29.21
2023-05-23T09:27:31.663Z,28.97
2023-05-23T09:30:06.988Z,28.74
2023-05-23T09:32:35.536Z,28.74
2023-05-23T09:35:07.781Z,28.39
2023-05-23T09:37:45.241Z,28.16
2023-05-23T09:40:17.427Z,28.29
2023-05-23T09:42:51.751Z,28.28
2023-05-23T09:45:20.021Z,28.52
2023-05-23T09:47:53.984Z,28.78
2023-05-23T09:50:23.618Z,29.06
2023-05-23T09:52:53.929Z,29.23
2023-05-23T09:55:22.025Z,29.33
2023-05-23T09:57:58.459Z,29.12
2023-05-23T10:00:32.630Z,29.10
2023-05-23T10:03:13.972Z,29.08
2023-05-23T10:05:52.363Z,29.31
2023-05-23T10:08:29.164Z,29.40
2023-05-23T10:11:17.067Z,29.25
2023-05-23T10:13:49.262Z,29.24
2023-05-23T10:16:40.434Z,29.38
2023-05-23T10:19:19.728Z,29.44
2023-05-23T10:21:53.790Z,29.65
2023-05-23T10:24:22.481Z,29.81
2023-05-23T10:26:50.986Z,29.91
2023-05-23T10:29:23.036Z,30.01
2023-05-23T10:31:53.402Z,29.90
2023-05-23T10:34:55.584Z,29.99
2023-05-23T10:37:28.939Z,30.04
2023-05-23T10:40:23.621Z,30.26
2023-05-23T10:43:11.888Z,30.31
2023-05-23T10:45:47.014Z,30.40
2023-05-23T10:48:32.274Z,30.36
2023-05-23T10:51:14.787Z,30.33
2023-05-23T10:53:45.511Z,30.38
2023-05-23T10:56:25.381Z,30.43
2023-05-23T10:59:24.836Z,30.35
2023-05-23T11:01:35.473Z,30.23
2023-05-23T11:04:07.571Z,30.22
2023-05-23T11:06:44.796Z,30.27
2023-05-23T11:09:18.897Z,30.31
2023-05-23T11:12:05.254Z,30.36
2023-05-23T11:14:53.226Z,30.39
2023-05-23T11:17:33.342Z,30.35
2023-05-23T11:20:16.263Z,30.40
2023-05-23T11:23:17.209Z,30.47
2023-05-23T11:26:05.588Z,30.50
2023-05-23T11:28:59.095Z,30.30
2023-05-23T11:31:27.579Z,30.26
2023-05-23T11:33:56.735Z,30.30
2023-05-23T11:36:40.919Z,30.39
2023-05-23T11:39:35.535Z,30.49
2023-05-23T11:42:35.603Z,30.52
2023-05-23T11:45:04.628Z,30.25
2023-05-23T11:54:17.218Z,30.12
2023-05-23T11:57:13.558Z,30.06
2023-05-23T11:59:46.419Z,29.86
2023-05-23T12:02:14.729Z,29.88
2023-05-23T12:04:44.911Z,29.98
2023-05-23T12:07:13.211Z,29.98
2023-05-23T12:09:59.414Z,30.05
2023-05-23T12:12:30.060Z,29.98
2023-05-23T12:15:09.295Z,30.06
2023-05-23T12:18:11.547Z,30.07
2023-05-23T12:34:21.410Z,30.07
2023-05-23T12:41:03.772Z,29.93
2023-05-23T12:47:47.429Z,30.00
2023-05-23T12:50:18.524Z,29.97
2023-05-23T12:52:56.665Z,29.90
2023-05-23T12:56:03.967Z,29.83
2023-05-23T12:58:34.761Z,29.82
2023-05-23T13:14:06.726Z,29.78
2023-05-23T13:17:21.689Z,29.79
2023-05-23T14:34:49.081Z,27.07
2023-05-23T14:38:03.609Z,27.02
2023-05-23T14:40:32.521Z,27.00
2023-05-23T14:43:16.510Z,26.94
2023-05-23T14:46:23.909Z,26.94
2023-05-23T14:52:18.259Z,27.02
2023-05-23T14:54:46.582Z,26.94
2023-05-23T14:57:14.766Z,27.06
2023-05-23T14:59:43.079Z,27.17
2023-05-23T15:02:11.410Z,27.20
2023-05-23T15:04:39.583Z,27.18
2023-05-23T15:07:09.692Z,27.25
2023-05-23T15:09:42.383Z,27.36
2023-05-23T15:12:14.359Z,27.45
2023-05-23T15:14:44.530Z,27.46
2023-05-23T15:17:14.949Z,27.39
2023-05-23T15:19:45.372Z,27.16
2023-05-23T15:22:36.544Z,26.87
2023-05-23T15:24:52.956Z,26.74
2023-05-23T15:27:24.561Z,26.68
2023-05-23T15:30:12.124Z,26.73
2023-05-23T15:32:41.229Z,26.72
2023-05-23T15:35:23.130Z,26.65
2023-05-23T15:37:53.760Z,26.64
2023-05-23T15:40:22.010Z,26.58
2023-05-23T15:42:50.820Z,26.51
2023-05-23T15:45:22.088Z,26.49
2023-05-23T15:47:51.566Z,26.40
2023-05-23T15:50:19.755Z,26.38
2023-05-23T15:52:48.987Z,26.33
2023-05-23T15:55:16.822Z,26.25
2023-05-23T15:57:44.877Z,26.20
2023-05-23T16:00:18.051Z,26.10
2023-05-23T16:02:56.463Z,26.01
2023-05-23T16:05:31.790Z,25.93
2023-05-23T16:08:08.210Z,25.89
2023-05-23T16:10:36.655Z,25.60
2023-05-23T16:13:04.700Z,25.60
2023-05-23T16:16:00.636Z,25.39
2023-05-23T16:18:32.632Z,25.05
2023-05-23T16:21:01.279Z,24.56
2023-05-23T16:23:29.344Z,24.29
2023-05-23T16:25:57.996Z,24.04
2023-05-23T16:28:28.555Z,23.87
2023-05-23T16:30:56.736Z,23.68
2023-05-23T16:33:26.342Z,23.39
2023-05-23T16:35:55.609Z,22.97
2023-05-23T16:38:23.554Z,22.87
2023-05-23T16:40:51.538Z,22.67
2023-05-23T16:43:19.598Z,22.49
2023-05-23T16:45:49.304Z,22.37
2023-05-23T16:48:20.265Z,22.33
2023-05-23T16:50:50.223Z,22.25
2023-05-23T16:53:18.167Z,22.20
2023-05-23T16:55:46.163Z,22.10
2023-05-23T16:58:14.117Z,22.02
2023-05-23T17:00:42.403Z,21.92
2023-05-23T17:03:11.768Z,21.83
2023-05-23T17:05:41.908Z,21.69
2023-05-23T17:08:09.922Z,21.59
2023-05-23T17:10:37.924Z,21.52
2023-05-23T17:13:05.721Z,21.51
2023-05-23T17:15:33.947Z,21.50
2023-05-23T17:18:01.945Z,21.44
2023-05-23T17:20:29.967Z,21.38
2023-05-23T17:22:58.167Z,21.35
2023-05-23T17:25:27.991Z,21.31
2023-05-23T17:27:56.296Z,21.20
2023-05-23T17:30:24.245Z,21.21
2023-05-23T17:32:52.132Z,21.14
2023-05-23T17:35:20.716Z,21.09
2023-05-23T17:38:02.960Z,21.00
2023-05-23T17:40:32.814Z,20.92
2023-05-23T17:43:00.979Z,20.85
2023-05-23T17:45:28.926Z,20.79
2023-05-23T17:48:03.227Z,20.69
2023-05-23T17:50:36.579Z,20.63
2023-05-23T17:53:05.850Z,20.53
2023-05-23T17:55:34.898Z,20.40
2023-05-23T17:58:03.075Z,20.27
2023-05-23T18:00:32.092Z,20.15
2023-05-23T18:03:05.952Z,20.03
2023-05-23T18:05:36.214Z,19.91
2023-05-23T18:08:04.577Z,19.78
2023-05-23T18:10:33.219Z,19.70
2023-05-23T18:13:01.297Z,19.60
2023-05-23T18:15:29.068Z,19.49
2023-05-23T18:17:57.254Z,19.40
2023-05-23T18:20:25.325Z,19.32
2023-05-23T18:22:56.377Z,19.22
2023-05-23T18:25:26.130Z,19.12
2023-05-23T18:28:02.534Z,19.04
2023-05-23T18:30:30.915Z,18.97
2023-05-23T18:32:59.338Z,18.89
2023-05-23T18:35:27.336Z,18.82
2023-05-23T18:37:55.087Z,18.75
2023-05-23T18:40:23.625Z,18.70
2023-05-23T18:42:51.520Z,18.63
2023-05-23T18:45:22.130Z,18.53
2023-05-23T18:47:49.717Z,18.44
2023-05-23T18:50:18.198Z,18.38
2023-05-23T18:52:51.334Z,18.31
2023-05-23T18:55:19.799Z,18.17
2023-05-23T18:57:47.913Z,18.01
2023-05-23T19:00:17.177Z,17.91
2023-05-23T19:02:45.230Z,17.85
2023-05-23T19:05:13.251Z,17.78
2023-05-23T19:08:03.003Z,17.71
2023-05-23T19:10:32.470Z,17.65
2023-05-23T19:13:02.370Z,17.58
2023-05-23T19:15:32.132Z,17.54
2023-05-23T19:18:05.471Z,17.47
2023-05-23T19:20:33.780Z,17.39
2023-05-23T19:23:17.131Z,17.31
2023-05-23T19:25:47.766Z,17.26
2023-05-23T19:28:17.726Z,17.23
2023-05-23T19:30:47.352Z,17.19
2023-05-23T19:33:22.417Z,17.18
2023-05-23T19:35:51.150Z,17.13
2023-05-23T19:38:19.131Z,17.08
2023-05-23T19:40:47.339Z,17.04
2023-05-23T19:43:15.360Z,17.01
2023-05-23T19:45:44.004Z,16.97
2023-05-23T19:48:11.975Z,16.94
2023-05-23T19:50:42.814Z,16.91
2023-05-23T19:53:12.260Z,16.88
2023-05-23T19:55:39.903Z,16.83
2023-05-23T19:58:10.850Z,16.79
2023-05-23T20:00:39.209Z,16.75
2023-05-23T20:03:07.950Z,16.67
2023-05-23T20:05:36.544Z,16.62
2023-05-23T20:08:04.606Z,16.56
2023-05-23T20:10:32.703Z,16.48
2023-05-23T20:13:00.330Z,16.41
2023-05-23T20:15:39.549Z,16.37
2023-05-23T20:18:04.346Z,16.31
2023-05-23T20:20:32.037Z,16.23
2023-05-23T20:22:59.612Z,16.13
2023-05-23T20:25:29.350Z,16.04
2023-05-23T20:27:57.131Z,15.95
2023-05-23T20:30:24.857Z,15.88
2023-05-23T20:32:53.811Z,15.85
2023-05-23T20:35:22.227Z,15.81
2023-05-23T20:37:53.233Z,15.81
2023-05-23T20:40:22.298Z,15.80
2023-05-23T20:42:50.229Z,15.74
2023-05-23T20:45:17.790Z,15.77
2023-05-23T20:47:45.768Z,15.71
2023-05-23T20:50:14.373Z,15.68
2023-05-23T20:52:42.538Z,15.65
2023-05-23T20:55:10.581Z,15.63
2023-05-23T20:57:39.023Z,15.62
2023-05-23T21:00:12.108Z,15.59
2023-05-23T21:02:41.210Z,15.57
2023-05-23T21:05:10.943Z,15.53
2023-05-23T21:07:39.001Z,15.48
2023-05-23T21:10:07.643Z,15.43
2023-05-23T21:12:35.525Z,15.40
2023-05-23T21:15:03.968Z,15.34
2023-05-23T21:17:31.475Z,15.32
2023-05-23T21:19:59.555Z,15.31
2023-05-23T21:22:27.425Z,15.27
2023-05-23T21:24:55.338Z,15.23
2023-05-23T21:27:23.251Z,15.18
2023-05-23T21:29:51.186Z,15.16
2023-05-23T21:32:19.034Z,15.14
2023-05-23T21:34:46.850Z,15.11
2023-05-23T21:37:14.652Z,15.09
2023-05-23T21:39:51.116Z,15.08
2023-05-23T21:42:12.092Z,15.06
2023-05-23T21:44:40.964Z,15.03
2023-05-23T21:47:09.463Z,15.01
2023-05-23T21:49:37.626Z,14.97
2023-05-23T21:52:05.348Z,14.96
2023-05-23T21:54:33.051Z,14.95
2023-05-23T21:57:00.696Z,14.91
2023-05-23T21:59:28.307Z,14.87
2023-05-23T22:01:56.269Z,14.86
2023-05-23T22:04:25.367Z,14.84
2023-05-23T22:06:53.091Z,14.80
2023-05-23T22:09:20.937Z,14.77
2023-05-23T22:11:48.602Z,14.77
2023-05-23T22:14:16.577Z,14.75
2023-05-23T22:16:44.887Z,14.72
2023-05-23T22:19:14.735Z,14.69
2023-05-23T22:21:42.382Z,14.69
2023-05-23T22:24:10.040Z,14.65
2023-05-23T22:26:38.845Z,14.64
2023-05-23T22:29:06.660Z,14.62
2023-05-23T22:31:35.538Z,14.63
2023-05-23T22:34:03.236Z,14.63
2023-05-23T22:36:33.029Z,14.63
2023-05-23T22:39:04.942Z,14.63
2023-05-23T22:41:32.724Z,14.60
2023-05-23T22:44:01.036Z,14.56
2023-05-23T22:46:29.178Z,14.53
2023-05-23T22:48:57.626Z,14.50
2023-05-23T22:51:25.391Z,14.45
2023-05-23T22:53:53.161Z,14.41
2023-05-23T22:56:21.355Z,14.34
2023-05-23T22:58:48.938Z,14.30
2023-05-23T23:01:17.652Z,14.22
2023-05-23T23:03:45.573Z,14.15
2023-05-23T23:06:13.116Z,14.05
2023-05-23T23:08:40.973Z,14.01
2023-05-23T23:11:08.829Z,13.97
2023-05-23T23:13:36.602Z,13.95
2023-05-23T23:16:05.958Z,13.95
2023-05-23T23:18:33.692Z,13.92
2023-05-23T23:21:01.723Z,13.89
2023-05-23T23:23:29.442Z,13.87
2023-05-23T23:25:58.924Z,13.84
2023-05-23T23:28:28.619Z,13.83
2023-05-23T23:30:56.343Z,13.80
2023-05-23T23:33:24.079Z,13.79
2023-05-23T23:35:52.110Z,13.80
2023-05-23T23:38:19.866Z,13.78
2023-05-23T23:40:47.598Z,13.73
2023-05-23T23:43:15.327Z,13.70
2023-05-23T23:45:43.242Z,13.63
2023-05-23T23:48:12.867Z,13.52
2023-05-23T23:50:40.743Z,13.38
2023-05-23T23:53:08.447Z,13.28
2023-05-23T23:55:36.142Z,13.19
2023-05-23T23:58:04.023Z,13.13
